createdAt,value
2023-05-12T00:01:25.657Z,73.54
2023-05-12T00:04:27.900Z,73.67
2023-05-12T00:07:30.277Z,74.43
2023-05-12T00:10:35.881Z,74.81
2023-05-12T00:13:38.030Z,75.23
2023-05-12T00:16:45.652Z,74.97
2023-05-12T00:19:51.343Z,73.48
2023-05-12T00:22:55.793Z,73.95
2023-05-12T00:26:00.286Z,73.07
2023-05-12T00:29:02.700Z,74.42
2023-05-12T00:32:08.330Z,74.04
2023-05-12T00:35:12.866Z,75.26
2023-05-12T00:38:15.365Z,74.71
2023-05-12T00:41:17.592Z,75.30
2023-05-12T00:44:19.883Z,75.49
2023-05-12T00:47:22.451Z,75.74
2023-05-12T00:50:27.595Z,74.44
2023-05-12T00:53:45.139Z,74.83
2023-05-12T00:56:53.763Z,75.79
2023-05-12T00:59:57.038Z,74.97
2023-05-12T01:02:59.827Z,74.49
2023-05-12T01:06:11.435Z,75.11
2023-05-12T01:09:15.156Z,75.38
2023-05-12T01:12:18.016Z,74.99
2023-05-12T01:15:20.449Z,76.08
2023-05-12T01:18:28.138Z,75.30
2023-05-12T01:21:30.420Z,75.22
2023-05-12T01:24:42.939Z,75.77
2023-05-12T01:27:46.356Z,75.16
2023-05-12T01:30:49.269Z,75.15
2023-05-12T01:33:54.369Z,75.44
2023-05-12T01:36:59.284Z,76.82
2023-05-12T01:40:02.484Z,75.71
2023-05-12T01:43:06.960Z,77.57
2023-05-12T01:46:11.619Z,76.69
2023-05-12T01:49:15.955Z,77.83
2023-05-12T01:52:26.143Z,78.14
2023-05-12T01:55:28.566Z,78.35
2023-05-12T01:58:37.587Z,79.11
2023-05-12T02:01:42.568Z,80.37
2023-05-12T02:04:48.348Z,79.75
2023-05-12T02:07:56.081Z,79.59
2023-05-12T02:11:08.826Z,79.01
2023-05-12T02:14:14.278Z,79.14
2023-05-12T02:17:17.362Z,78.54
2023-05-12T02:20:21.262Z,78.92
2023-05-12T02:23:23.969Z,78.73
2023-05-12T02:26:28.526Z,78.85
2023-05-12T02:29:30.835Z,79.07
2023-05-12T02:32:33.837Z,77.69
2023-05-12T02:35:38.684Z,78.82
2023-05-12T02:38:43.778Z,80.16
2023-05-12T02:41:46.133Z,80.70
2023-05-12T02:44:48.470Z,79.96
2023-05-12T02:47:53.488Z,79.56
2023-05-12T02:50:58.145Z,79.89
2023-05-12T02:54:00.445Z,80.44
2023-05-12T02:57:06.601Z,79.69
2023-05-12T03:00:09.511Z,81.18
2023-05-12T03:03:14.313Z,80.78
2023-05-12T03:06:16.783Z,80.48
2023-05-12T03:09:19.143Z,79.95
2023-05-12T03:12:24.163Z,80.45
2023-05-12T03:15:28.731Z,80.45
2023-05-12T03:18:33.797Z,79.88
2023-05-12T03:21:38.507Z,81.35
2023-05-12T03:24:43.924Z,79.62
2023-05-12T03:27:49.874Z,79.58
2023-05-12T03:30:55.562Z,80.21
2023-05-12T03:33:58.940Z,80.15
2023-05-12T03:37:03.949Z,81.17
2023-05-12T03:40:12.129Z,80.58
2023-05-12T03:43:17.138Z,80.84
2023-05-12T03:46:22.782Z,81.37
2023-05-12T03:49:25.221Z,80.82
2023-05-12T03:52:29.939Z,81.03
2023-05-12T03:55:34.431Z,81.85
2023-05-12T03:58:38.919Z,80.58
2023-05-12T04:01:41.353Z,81.14
2023-05-12T04:04:45.905Z,79.95
2023-05-12T04:07:53.412Z,80.82
2023-05-12T04:10:58.161Z,81.41
2023-05-12T04:14:02.713Z,82.23
2023-05-12T04:17:05.251Z,81.89
2023-05-12T04:20:10.803Z,81.55
2023-05-12T04:23:17.778Z,81.85
2023-05-12T04:26:20.783Z,80.67
2023-05-12T04:29:25.586Z,81.08
2023-05-12T04:32:30.545Z,81.01
2023-05-12T04:35:36.246Z,81.18
2023-05-12T04:38:40.658Z,80.70
2023-05-12T04:41:43.830Z,81.43
2023-05-12T04:44:46.784Z,81.11
2023-05-12T04:47:51.917Z,80.93
2023-05-12T04:50:54.973Z,80.81
2023-05-12T04:53:57.194Z,80.96
2023-05-12T04:57:01.893Z,81.34
2023-05-12T05:00:07.172Z,79.81
2023-05-12T05:03:12.138Z,81.00
2023-05-12T05:06:16.907Z,80.76
2023-05-12T05:09:19.848Z,81.72
2023-05-12T05:12:22.232Z,81.35
2023-05-12T05:15:27.305Z,81.17
2023-05-12T05:18:32.454Z,81.39
2023-05-12T05:21:35.021Z,81.18
2023-05-12T05:24:37.420Z,81.34
2023-05-12T05:27:39.737Z,80.75
2023-05-12T05:30:42.467Z,80.93
2023-05-12T05:33:45.040Z,80.02
2023-05-12T05:36:50.850Z,80.44
2023-05-12T05:39:55.633Z,80.25
2023-05-12T05:42:58.124Z,80.81
2023-05-12T05:46:05.574Z,81.00
2023-05-12T05:49:10.661Z,80.66
2023-05-12T05:52:13.045Z,81.76
2023-05-12T05:55:18.259Z,81.43
2023-05-12T05:58:25.352Z,81.18
2023-05-12T06:01:27.930Z,80.41
2023-05-12T06:04:30.401Z,81.27
2023-05-12T06:07:33.886Z,81.37
2023-05-12T06:10:41.006Z,80.14
2023-05-12T06:13:45.654Z,80.50
2023-05-12T06:16:48.193Z,79.93
2023-05-12T06:19:52.750Z,80.31
2023-05-12T06:23:00.157Z,80.99
2023-05-12T06:26:02.621Z,81.42
2023-05-12T06:29:07.706Z,80.75
2023-05-12T06:32:10.113Z,80.97
2023-05-12T06:35:13.003Z,81.19
2023-05-12T06:38:17.591Z,81.43
2023-05-12T06:41:25.341Z,79.93
2023-05-12T06:44:32.332Z,80.73
2023-05-12T06:47:37.429Z,80.87
2023-05-12T06:50:42.378Z,81.38
2023-05-12T06:53:47.155Z,80.26
2023-05-12T06:56:49.571Z,80.38
2023-05-12T06:59:52.379Z,80.54
2023-05-12T07:02:54.752Z,79.73
2023-05-12T07:05:59.279Z,79.97
2023-05-12T07:09:01.644Z,79.68
2023-05-12T07:12:04.813Z,80.42
2023-05-12T07:15:08.464Z,77.12
2023-05-12T07:18:13.827Z,79.58
2023-05-12T07:21:16.132Z,79.30
2023-05-12T07:24:18.393Z,79.04
2023-05-12T07:27:23.118Z,79.23
2023-05-12T07:30:30.761Z,78.65
2023-05-12T07:33:33.375Z,79.05
2023-05-12T07:36:41.245Z,76.31
2023-05-12T07:39:45.878Z,78.86
2023-05-12T07:42:48.248Z,77.57
2023-05-12T07:45:52.921Z,76.92
2023-05-12T07:49:02.889Z,75.06
2023-05-12T07:52:09.648Z,77.12
2023-05-12T07:55:14.927Z,75.79
2023-05-12T07:58:17.204Z,78.00
2023-05-12T08:01:21.796Z,76.73
2023-05-12T08:04:26.539Z,76.12
2023-05-12T08:07:28.893Z,74.58
2023-05-12T08:10:32.652Z,74.58
2023-05-12T08:13:37.165Z,73.68
2023-05-12T08:16:39.837Z,73.88
2023-05-12T08:19:44.585Z,74.93
2023-05-12T08:22:47.929Z,72.72
2023-05-12T08:25:50.314Z,72.47
2023-05-12T08:29:02.554Z,70.97
2023-05-12T08:32:07.630Z,69.87
2023-05-12T08:35:09.960Z,70.13
2023-05-12T08:38:12.294Z,71.28
2023-05-12T08:41:23.353Z,71.88
2023-05-12T08:44:28.296Z,72.35
2023-05-12T08:47:33.680Z,73.18
2023-05-12T08:50:38.243Z,74.25
2023-05-12T08:53:43.223Z,71.68
2023-05-12T08:59:59.401Z,72.97
2023-05-12T09:03:05.533Z,71.66
2023-05-12T09:06:13.390Z,72.62
2023-05-12T09:09:20.054Z,72.43
2023-05-12T09:12:23.243Z,73.46
2023-05-12T09:15:36.246Z,74.08
2023-05-12T09:18:58.852Z,75.63
2023-05-12T09:22:01.390Z,76.31
2023-05-12T09:25:26.222Z,77.46
2023-05-12T09:28:36.876Z,77.43
2023-05-12T09:31:39.182Z,79.62
2023-05-12T09:34:43.570Z,80.33
2023-05-12T09:37:46.745Z,80.72
2023-05-12T09:40:51.912Z,81.13
2023-05-12T09:43:54.352Z,82.44
2023-05-12T09:47:08.376Z,82.73
2023-05-12T09:50:10.850Z,83.90
2023-05-12T09:53:13.186Z,84.32
2023-05-12T09:56:21.325Z,83.97
2023-05-12T09:59:36.339Z,84.43
2023-05-12T10:02:43.105Z,85.85
2023-05-12T10:05:55.828Z,85.35
2023-05-12T10:09:03.538Z,85.01
2023-05-12T10:12:06.499Z,84.07
2023-05-12T10:15:13.425Z,84.27
2023-05-12T10:18:19.492Z,86.24
2023-05-12T10:21:22.112Z,85.43
2023-05-12T10:24:28.395Z,85.55
2023-05-12T10:27:35.824Z,86.52
2023-05-12T10:30:43.102Z,85.68
2023-05-12T10:33:59.392Z,86.11
2023-05-12T10:37:08.432Z,85.94
2023-05-12T10:40:26.953Z,86.93
2023-05-12T10:43:38.931Z,84.89
2023-05-12T10:46:42.286Z,86.25
2023-05-12T10:49:47.853Z,84.98
2023-05-12T10:52:55.151Z,84.64
2023-05-12T10:56:05.582Z,83.55
2023-05-12T10:59:09.532Z,83.96
2023-05-12T11:02:21.560Z,83.63
2023-05-12T11:05:34.667Z,82.76
2023-05-12T11:08:37.922Z,83.30
2023-05-12T11:11:43.544Z,82.77
2023-05-12T11:14:47.182Z,83.44
2023-05-12T11:17:49.454Z,82.84
2023-05-12T11:20:53.945Z,82.37
2023-05-12T11:23:59.193Z,82.33
2023-05-12T11:27:04.977Z,83.35
2023-05-12T11:30:11.226Z,82.23
2023-05-12T11:33:19.824Z,83.68
2023-05-12T11:36:22.142Z,83.40
2023-05-12T11:39:32.476Z,83.45
2023-05-12T11:42:34.784Z,81.71
2023-05-12T11:45:37.272Z,81.60
2023-05-12T11:48:41.961Z,81.43
2023-05-12T11:51:44.311Z,81.52
2023-05-12T11:55:04.719Z,81.47
2023-05-12T11:58:07.010Z,81.97
2023-05-12T12:01:13.546Z,80.82
2023-05-12T12:04:18.277Z,80.80
2023-05-12T12:07:34.089Z,80.28
2023-05-12T12:10:38.627Z,80.04
2023-05-12T12:13:49.197Z,81.39
2023-05-12T12:16:51.534Z,81.29
2023-05-12T12:19:53.789Z,80.30
2023-05-12T12:22:58.310Z,79.89
2023-05-12T12:26:03.559Z,80.84
2023-05-12T12:29:05.841Z,81.45
2023-05-12T12:32:12.610Z,81.15
2023-05-12T12:35:22.810Z,81.31
2023-05-12T12:38:27.439Z,81.02
2023-05-12T12:41:32.490Z,81.87
2023-05-12T12:44:34.780Z,80.54
2023-05-12T12:47:39.907Z,81.30
2023-05-12T12:50:42.394Z,80.84
2023-05-12T12:53:45.741Z,81.90
2023-05-12T12:56:48.184Z,81.66
2023-05-12T12:59:50.495Z,81.77
2023-05-12T13:02:55.916Z,81.94
2023-05-12T13:05:58.368Z,82.27
2023-05-12T13:09:03.987Z,81.97
2023-05-12T13:12:06.455Z,81.73
2023-05-12T13:15:11.584Z,82.87
2023-05-12T13:18:14.054Z,81.68
2023-05-12T13:21:16.374Z,82.37
2023-05-12T13:24:18.636Z,83.32
2023-05-12T13:27:23.357Z,83.34
2023-05-12T13:30:25.840Z,82.33
2023-05-12T13:33:30.837Z,82.78
2023-05-12T13:36:38.561Z,82.39
2023-05-12T13:39:40.953Z,82.05
2023-05-12T13:42:43.268Z,81.96
2023-05-12T13:45:47.111Z,81.59
2023-05-12T13:48:54.762Z,81.54
2023-05-12T13:51:57.081Z,82.32
2023-05-12T13:54:59.444Z,81.37
2023-05-12T13:58:04.551Z,82.26
2023-05-12T14:01:09.749Z,82.47
2023-05-12T14:04:12.792Z,82.32
2023-05-12T14:07:15.374Z,81.95
2023-05-12T14:10:22.371Z,82.78
2023-05-12T14:13:26.042Z,83.61
2023-05-12T14:16:31.383Z,83.67
2023-05-12T14:19:36.348Z,82.57
2023-05-12T14:22:39.019Z,83.30
2023-05-12T14:25:43.570Z,83.38
2023-05-12T14:28:46.122Z,84.77
2023-05-12T14:31:53.485Z,83.90
2023-05-12T14:34:55.713Z,85.10
2023-05-12T14:37:58.269Z,84.56
2023-05-12T14:41:00.504Z,85.29
2023-05-12T14:44:05.170Z,84.86
2023-05-12T14:47:10.542Z,86.16
2023-05-12T14:50:13.734Z,84.71
2023-05-12T14:53:18.249Z,85.75
2023-05-12T14:56:22.722Z,83.46
2023-05-12T14:59:33.397Z,82.80
2023-05-12T15:02:35.862Z,83.98
2023-05-12T15:05:56.881Z,83.23
2023-05-12T15:09:02.689Z,82.16
2023-05-12T15:12:05.208Z,83.02
2023-05-12T15:15:08.908Z,83.51
2023-05-12T15:18:11.375Z,84.70
2023-05-12T15:21:13.647Z,84.33
2023-05-12T15:24:16.197Z,85.41
2023-05-12T15:27:18.472Z,86.18
2023-05-12T15:30:20.944Z,85.98
2023-05-12T15:33:26.129Z,85.66
2023-05-12T15:36:28.547Z,84.37
2023-05-12T15:39:30.805Z,84.47
2023-05-12T15:42:34.131Z,84.90
2023-05-12T15:45:37.384Z,85.32
2023-05-12T15:48:39.874Z,86.01
2023-05-12T15:51:42.130Z,86.01
2023-05-12T15:54:44.388Z,85.13
2023-05-12T15:57:49.503Z,85.17
2023-05-12T16:00:54.080Z,85.20
2023-05-12T16:03:56.525Z,84.26
2023-05-12T16:06:59.057Z,84.29
2023-05-12T16:10:08.339Z,85.87
2023-05-12T16:13:13.756Z,85.02
2023-05-12T16:16:21.451Z,84.02
2023-05-12T16:19:26.110Z,84.45
2023-05-12T16:22:28.337Z,84.81
2023-05-12T16:25:30.686Z,84.16
2023-05-12T16:28:34.676Z,82.98
2023-05-12T16:31:42.309Z,83.69
2023-05-12T16:34:44.759Z,84.88
2023-05-12T16:37:49.586Z,84.41
2023-05-12T16:40:56.621Z,85.73
2023-05-12T16:44:03.675Z,84.45
2023-05-12T16:47:06.083Z,84.88
2023-05-12T16:50:11.766Z,83.85
2023-05-12T16:53:18.952Z,83.42
2023-05-12T16:56:23.348Z,84.92
2023-05-12T16:59:25.633Z,84.93
2023-05-12T17:02:31.046Z,83.72
2023-05-12T17:05:37.046Z,84.62
2023-05-12T17:08:39.397Z,84.74
2023-05-12T17:11:42.704Z,85.51
2023-05-12T17:14:59.420Z,83.95
2023-05-12T17:18:06.288Z,84.72
2023-05-12T17:21:11.599Z,85.62
2023-05-12T17:24:17.200Z,84.66
2023-05-12T17:27:21.646Z,86.18
2023-05-12T17:30:24.053Z,85.51
2023-05-12T17:33:26.637Z,85.70
2023-05-12T17:36:32.985Z,85.01
2023-05-12T17:39:35.442Z,86.48
2023-05-12T17:42:42.376Z,85.36
2023-05-12T17:45:47.377Z,86.21
2023-05-12T17:48:49.693Z,86.14
2023-05-12T17:51:57.861Z,86.98
2023-05-12T17:55:02.345Z,86.00
2023-05-12T17:58:04.794Z,86.00
2023-05-12T18:01:09.467Z,87.57
2023-05-12T18:04:11.905Z,85.81
2023-05-12T18:07:14.514Z,86.59
2023-05-12T18:10:19.248Z,85.80
2023-05-12T18:13:26.252Z,86.18
2023-05-12T18:16:31.853Z,86.35
2023-05-12T18:19:34.043Z,86.23
2023-05-12T18:22:39.298Z,86.25
2023-05-12T18:25:42.888Z,87.23
2023-05-12T18:28:48.126Z,86.29
2023-05-12T18:31:50.417Z,85.87
2023-05-12T18:34:57.632Z,84.14
2023-05-12T18:37:59.889Z,84.88
2023-05-12T18:41:07.156Z,85.00
2023-05-12T18:44:12.454Z,85.09
2023-05-12T18:47:17.139Z,85.86
2023-05-12T18:50:19.476Z,85.63
2023-05-12T18:53:21.982Z,85.40
2023-05-12T18:56:24.346Z,85.41
2023-05-12T18:59:26.885Z,85.99
2023-05-12T19:02:31.433Z,85.22
2023-05-12T19:05:37.014Z,85.23
2023-05-12T19:08:41.722Z,86.22
2023-05-12T19:11:44.436Z,85.55
2023-05-12T19:14:48.187Z,86.04
2023-05-12T19:17:50.703Z,86.20
2023-05-12T19:20:53.302Z,86.76
2023-05-12T19:23:56.279Z,85.91
2023-05-12T19:26:59.284Z,86.60
2023-05-12T19:30:05.329Z,85.74
2023-05-12T19:33:07.809Z,84.52
2023-05-12T19:36:12.720Z,84.95
2023-05-12T19:39:17.194Z,85.48
2023-05-12T19:42:19.781Z,84.28
2023-05-12T19:45:22.396Z,84.92
2023-05-12T19:48:24.981Z,84.37
2023-05-12T19:51:28.399Z,85.83
2023-05-12T19:54:30.804Z,86.02
2023-05-12T19:57:33.073Z,86.38
2023-05-12T20:00:36.983Z,85.95
2023-05-12T20:03:43.036Z,85.89
2023-05-12T20:06:48.134Z,87.12
2023-05-12T20:09:53.490Z,87.11
2023-05-12T20:12:58.655Z,86.89
2023-05-12T20:16:01.285Z,87.16
2023-05-12T20:19:03.570Z,86.82
2023-05-12T20:22:06.381Z,87.42
2023-05-12T20:25:15.989Z,87.46
2023-05-12T20:28:18.224Z,87.46
2023-05-12T20:31:20.598Z,87.29
2023-05-12T20:34:27.471Z,87.30
2023-05-12T20:37:32.228Z,87.64
2023-05-12T20:40:34.565Z,87.59
2023-05-12T20:43:41.377Z,88.01
2023-05-12T20:46:46.768Z,88.05
2023-05-12T20:49:57.169Z,88.37
2023-05-12T20:52:59.504Z,87.82
2023-05-12T20:56:08.344Z,88.25
2023-05-12T20:59:10.985Z,88.74
2023-05-12T21:02:13.338Z,88.47
2023-05-12T21:05:21.763Z,87.58
2023-05-12T21:08:24.393Z,87.77
2023-05-12T21:11:29.423Z,88.13
2023-05-12T21:14:47.643Z,88.40
2023-05-12T21:17:57.933Z,88.23
2023-05-12T21:21:02.877Z,88.61
2023-05-12T21:24:05.485Z,88.74
2023-05-12T21:27:08.406Z,88.29
2023-05-12T21:30:11.050Z,87.95
2023-05-12T21:33:18.530Z,88.61
2023-05-12T21:36:20.960Z,88.02
2023-05-12T21:39:28.367Z,87.69
2023-05-12T21:42:30.911Z,87.86
2023-05-12T21:45:33.255Z,87.92
2023-05-12T21:48:35.654Z,87.98
2023-05-12T21:51:37.980Z,87.92
2023-05-12T21:54:40.465Z,87.56
2023-05-12T21:57:42.914Z,88.02
2023-05-12T22:00:45.230Z,88.17
2023-05-12T22:03:47.651Z,88.80
2023-05-12T22:06:50.689Z,88.83
2023-05-12T22:09:52.965Z,87.91
2023-05-12T22:12:57.450Z,87.89
2023-05-12T22:16:00.155Z,88.15
2023-05-12T22:19:04.801Z,87.83
2023-05-12T22:22:07.141Z,88.30
2023-05-12T22:25:09.677Z,89.05
2023-05-12T22:28:11.967Z,87.62
2023-05-12T22:31:16.463Z,87.75
2023-05-12T22:34:24.252Z,87.36
2023-05-12T22:37:26.734Z,86.86
2023-05-12T22:40:30.887Z,87.79
2023-05-12T22:43:35.598Z,87.91
2023-05-12T22:46:38.042Z,87.16
2023-05-12T22:49:42.538Z,86.92
2023-05-12T22:52:50.075Z,87.31
2023-05-12T22:55:52.407Z,86.72
2023-05-12T22:58:57.104Z,86.47
2023-05-12T23:01:59.332Z,87.06
2023-05-12T23:05:05.014Z,86.68
2023-05-12T23:08:07.302Z,86.60
2023-05-12T23:11:12.894Z,86.37
2023-05-12T23:14:17.485Z,86.70
2023-05-12T23:17:20.797Z,86.28
2023-05-12T23:20:23.419Z,86.88
2023-05-12T23:23:26.160Z,86.76
2023-05-12T23:26:28.394Z,86.44
2023-05-12T23:29:34.546Z,86.67
2023-05-12T23:32:37.047Z,86.29
2023-05-12T23:35:39.562Z,86.14
2023-05-12T23:38:42.032Z,86.71
2023-05-12T23:41:45.603Z,86.59
2023-05-12T23:44:47.900Z,86.84
2023-05-12T23:47:52.850Z,86.42
2023-05-12T23:50:55.272Z,87.04
2023-05-12T23:53:57.478Z,87.01
2023-05-12T23:56:59.815Z,86.70
